Terminal Aerodrome Forecast
Issued by NWS

Current Version | Previous Version | Graphics & Text | Print | Product List | Glossary On
Versions: 1 2 3 4 5 6 7 8 9 10 11 12 13 14 15 16 17
000
FTUS41 KILN 271700
TAFLCK
TAF
KLCK 271732Z 2718/2818 19012G20KT P6SM SCT045 BKN200
     FM272300 20009KT P6SM BKN200
     FM281100 21012KT P6SM SCT040 BKN200
     FM281500 22012G22KT P6SM -SHRA VCTS OVC025CB=

USA.gov is the U.S. government's official web portal to all federal, state and local government web resources and services.